Página principal
METAR-TAF:

METAR-TAF

Aeroportos :

Aeroporto Internacional de Punta Cana

Punta Cana, República Dominicana

latitude: 18-34N, longitude: 068-22W, altura: 12 m

Observação actual do tempo

O boletim foi feito há 1 hora e 4 minutos, às 21:00 UTC
Vento 10 kt de nordeste
Temperatura 27°C
Humidade 70%
Pressão 1014 hPa
Visibilidade 10 km ou mais
Nuvens dispersasa uma altura de 2000 ft

METAR: MDPC 022100Z 04010KT 9999 SCT020 27/21 Q1014

Hora: 18:04 (22:04 UTC)

Previsão

O boletim foi feito há 6 horas e 4 minutos, às 16:00 UTC
Previsão válida de 02 às 18 UTC a 03 às 18 UTC
Vento 12 kt de nordeste
Visibilidade 10 km ou mais
Nuvens dispersasa uma altura de 2300 ft
Probabilidade 30%
de 02 às 18 UTC a 03 às 00 UTC
Visibilidade: 8000 m
Nuvens fragmentadasa uma altura de 1800 ft
aguaceiros de chuva

TAF: MDPC 021600Z 0218/0318 05012KT 9999 SCT023 PROB30 0218/0300 8000 SHRA BKN018

Observações e previsões do tempo de mais de 4000 aeroportos (mensagens METAR e TAF).

As estações disponíveis são os pontos amarelos e vermelhos sobre o mapa.

Mova o rato sobre o mapa para ver o nome da estação.

Depois clique no ponto para visualizar as observações e previsões meteorológicas.

Para alterar o mapa : clique nos botões verdes com uma cruz preta para aumentar o zoom; no botão verde com uma pitada de zoom; ou nas setas verdes para mapas adjacentes.


METAR-TAF: